Time;durP1;ratioP1;P1;durP2;ratioP2;P2;SDS_P1;SDS_P2;PMS_P1;PMS_P2;Temp;Humidity;BMP_temperature;BMP_pressure;BME280_temperature;BME280_humidity;BME280_pressure;Samples;Min_cycle;Max_cycle;Signal;HPM_P1;HPM_P2
2022/06/14 00:01:33;;;;;;;4.67;3.03;;;;;;;17.58;63.23;99240.06;5024299;27;104320;-60
2022/06/14 00:04:02;;;;;;;3.55;2.80;;;;;;;17.57;62.67;99238.38;5047626;27;102955;-60
2022/06/14 00:06:33;;;;;;;4.13;2.83;;;;;;;17.58;62.94;99236.56;5030238;27;102826;-60
2022/06/14 00:09:02;;;;;;;5.40;3.40;;;;;;;17.54;62.97;99228.00;5027256;27;103826;-61
2022/06/14 00:11:32;;;;;;;5.93;3.45;;;;;;;17.51;63.01;99233.59;5022648;27;103269;-61
2022/06/14 00:14:01;;;;;;;4.07;3.03;;;;;;;17.50;63.25;99231.91;5034445;27;103145;-60
2022/06/14 00:16:32;;;;;;;4.73;3.73;;;;;;;16.96;65.33;99232.44;5029743;27;102991;-61
2022/06/14 00:19:01;;;;;;;5.30;3.40;;;;;;;17.17;64.30;99235.00;5029030;27;102668;-61
2022/06/14 00:21:30;;;;;;;5.38;4.10;;;;;;;17.08;64.56;99230.47;5023448;27;103329;-61
2022/06/14 00:23:59;;;;;;;4.53;3.25;;;;;;;17.18;64.05;99231.31;5029039;27;103167;-61
2022/06/14 00:26:27;;;;;;;4.10;3.10;;;;;;;17.28;63.82;99226.84;5029225;27;102975;-66
2022/06/14 00:28:55;;;;;;;6.28;3.65;;;;;;;17.26;64.05;99226.97;5035070;27;102667;-66
2022/06/14 00:31:26;;;;;;;3.10;2.80;;;;;;;17.23;64.38;99224.63;5028726;27;103235;-66
2022/06/14 00:33:54;;;;;;;3.63;2.97;;;;;;;17.36;63.73;99229.66;5024215;27;103422;-66
2022/06/14 00:36:24;;;;;;;3.73;2.70;;;;;;;17.39;63.18;99224.88;5026208;27;102742;-67
2022/06/14 00:38:54;;;;;;;4.85;3.70;;;;;;;17.27;64.44;99222.47;5023431;27;103862;-66
2022/06/14 00:41:32;;;;;;;4.45;3.65;;;;;;;17.12;64.88;99226.56;5033572;27;103656;-66
2022/06/14 00:44:00;;;;;;;5.78;3.72;;;;;;;17.02;65.10;99231.03;5024501;27;103191;-60
2022/06/14 00:46:34;;;;;;;4.70;3.72;;;;;;;16.85;65.41;99226.38;5026192;27;102908;-65
2022/06/14 00:49:06;;;;;;;4.80;3.85;;;;;;;16.62;66.59;99234.59;5024671;27;102676;-66
2022/06/14 00:51:43;;;;;;;4.13;3.72;;;;;;;16.60;66.72;99220.56;5036811;27;103109;-66
2022/06/14 00:54:18;;;;;;;5.15;3.90;;;;;;;16.63;65.80;99220.28;5031534;27;103012;-66
2022/06/14 00:56:51;;;;;;;5.88;3.85;;;;;;;16.46;66.55;99218.25;5023882;27;102595;-65
2022/06/14 00:59:23;;;;;;;3.88;3.10;;;;;;;16.65;65.87;99223.66;5023814;27;104010;-65
2022/06/14 01:01:55;;;;;;;3.88;3.00;;;;;;;16.75;65.11;99223.69;5024064;27;103264;-65
2022/06/14 01:04:26;;;;;;;5.30;3.75;;;;;;;16.67;65.70;99220.88;5030311;27;103840;-65
2022/06/14 01:06:59;;;;;;;4.60;3.57;;;;;;;16.70;65.34;99220.59;5021940;27;102942;-66
2022/06/14 01:09:34;;;;;;;3.67;3.23;;;;;;;16.75;64.88;99221.88;5029256;27;103243;-65
2022/06/14 01:12:09;;;;;;;5.32;4.00;;;;;;;16.63;65.65;99214.97;5027917;27;103114;-65
2022/06/14 01:14:43;;;;;;;6.07;4.27;;;;;;;16.38;66.22;99214.56;5038363;27;103619;-65
2022/06/14 01:17:13;;;;;;;6.63;4.10;;;;;;;16.19;67.22;99215.34;5028979;27;102762;-65
2022/06/14 01:19:44;;;;;;;4.40;3.43;;;;;;;16.22;67.40;99215.88;5031089;27;103749;-66
2022/06/14 01:22:24;;;;;;;5.07;4.10;;;;;;;16.20;67.54;99212.53;5021898;27;103260;-66
2022/06/14 01:24:53;;;;;;;4.97;4.40;;;;;;;15.97;68.30;99212.84;5055435;27;103182;-65
2022/06/14 01:27:23;;;;;;;4.80;3.85;;;;;;;15.90;69.08;99212.53;5028692;27;102705;-65
2022/06/14 01:30:02;;;;;;;4.28;3.88;;;;;;;15.66;70.24;99214.63;5033801;27;102735;-66
2022/06/14 01:32:38;;;;;;;5.57;4.45;;;;;;;15.89;69.04;99209.97;5035533;27;104268;-66
2022/06/14 01:35:13;;;;;;;8.02;4.90;;;;;;;15.44;70.16;99207.56;5024834;27;103287;-65
2022/06/14 01:37:42;;;;;;;6.63;4.80;;;;;;;15.55;70.32;99215.50;5036123;27;102626;-66
2022/06/14 01:40:13;;;;;;;7.67;4.90;;;;;;;15.74;69.24;99209.50;5023102;27;103284;-65
2022/06/14 01:42:57;;;;;;;4.85;4.32;;;;;;;15.66;69.90;99206.63;5020993;27;103750;-65
2022/06/14 01:45:33;;;;;;;5.70;4.40;;;;;;;15.66;70.08;99212.78;5022998;27;103189;-65
2022/06/14 01:48:08;;;;;;;4.93;4.07;;;;;;;15.72;69.30;99205.28;5023565;27;102661;-66
2022/06/14 01:53:45;;;;;;;3.83;3.53;;;;;;;15.88;68.96;99210.97;5033751;27;104415;-65
2022/06/14 01:56:18;;;;;;;5.05;4.15;;;;;;;15.92;68.52;99215.88;5030308;27;103365;-65
2022/06/14 01:58:54;;;;;;;3.50;3.20;;;;;;;15.99;68.41;99216.22;5027427;27;102713;-65
2022/06/14 02:01:32;;;;;;;4.70;3.75;;;;;;;15.96;68.37;99216.47;5020368;27;104215;-65
2022/06/14 02:07:04;;;;;;;3.92;3.50;;;;;;;15.91;68.19;99226.69;5026915;27;103508;-65
2022/06/14 02:09:42;;;;;;;4.13;3.72;;;;;;;15.83;68.99;99216.66;5022641;27;102970;-65
2022/06/14 02:12:14;;;;;;;3.40;3.10;;;;;;;15.89;68.79;99217.97;5034510;27;103878;-65
2022/06/14 02:14:51;;;;;;;3.07;2.77;;;;;;;15.92;68.35;99218.56;5045995;27;103451;-65
2022/06/14 02:17:25;;;;;;;3.88;3.40;;;;;;;15.92;68.61;99223.03;5026362;27;103167;-65
2022/06/14 02:19:59;;;;;;;3.50;2.87;;;;;;;15.96;67.82;99213.81;5031095;27;103056;-66
2022/06/14 02:22:33;;;;;;;3.90;3.50;;;;;;;15.97;67.73;99215.50;5022230;27;103302;-65
2022/06/14 02:25:07;;;;;;;5.53;3.95;;;;;;;15.87;68.58;99211.94;5029165;27;103232;-65
2022/06/14 02:27:41;;;;;;;4.43;3.67;;;;;;;15.72;69.13;99210.59;5025012;27;103196;-65
2022/06/14 02:30:14;;;;;;;6.38;4.15;;;;;;;15.54;70.46;99208.50;5030889;27;103954;-65
2022/06/14 02:32:46;;;;;;;5.47;4.38;;;;;;;15.54;69.81;99211.19;5034177;27;104034;-65
2022/06/14 02:35:19;;;;;;;4.70;3.97;;;;;;;15.53;69.81;99212.16;5020491;27;103303;-65
2022/06/14 02:37:53;;;;;;;5.28;4.22;;;;;;;15.44;70.72;99202.22;5026584;27;102974;-65
2022/06/14 02:40:28;;;;;;;5.53;4.22;;;;;;;15.27;71.03;99210.78;5037450;27;102691;-65
2022/06/14 02:43:02;;;;;;;5.60;4.57;;;;;;;14.91;72.83;99208.50;5032722;27;103812;-66
2022/06/14 02:45:36;;;;;;;6.78;4.80;;;;;;;14.40;74.84;99209.09;5024296;27;103201;-66
2022/06/14 02:48:07;;;;;;;6.63;4.60;;;;;;;14.37;74.98;99209.34;5023872;27;103231;-66
2022/06/14 02:50:41;;;;;;;5.28;4.03;;;;;;;14.73;73.67;99204.69;5031729;27;102677;-65
2022/06/14 02:53:14;;;;;;;5.20;3.63;;;;;;;14.96;72.20;99206.34;5036555;27;102554;-66
2022/06/14 02:55:47;;;;;;;3.77;3.30;;;;;;;15.04;71.69;99209.22;5025090;27;103998;-61
2022/06/14 02:58:21;;;;;;;4.63;4.03;;;;;;;14.89;72.21;99205.97;5020904;27;103238;-61
2022/06/14 03:00:54;;;;;;;4.68;3.47;;;;;;;15.01;71.76;99212.13;5046417;27;102809;-61
2022/06/14 03:03:27;;;;;;;4.53;3.88;;;;;;;15.01;71.25;99209.47;5030986;27;104280;-60
2022/06/14 03:06:03;;;;;;;5.30;4.00;;;;;;;14.77;72.61;99211.44;5031002;27;103246;-61
2022/06/14 03:08:35;;;;;;;5.75;4.57;;;;;;;14.73;73.00;99216.19;5017464;27;103152;-60
2022/06/14 03:11:17;;;;;;;4.80;3.90;;;;;;;14.91;72.08;99205.84;5033468;27;102650;-61
2022/06/14 03:13:55;;;;;;;3.40;3.00;;;;;;;15.03;71.02;99207.50;5034041;27;104077;-60
2022/06/14 03:16:32;;;;;;;4.78;3.80;;;;;;;14.99;71.63;99211.38;5028417;27;104076;-60
2022/06/14 03:19:07;;;;;;;4.40;3.67;;;;;;;14.88;72.32;99214.06;5017110;27;103262;-61
2022/06/14 03:21:39;;;;;;;5.00;3.95;;;;;;;14.97;71.30;99218.66;5026400;27;102631;-61
2022/06/14 03:24:11;;;;;;;3.45;3.15;;;;;;;15.07;70.58;99211.63;5028515;27;103867;-61
2022/06/14 03:26:54;;;;;;;3.85;3.50;;;;;;;15.09;70.65;99215.00;5022836;27;103261;-60
2022/06/14 03:29:26;;;;;;;4.30;3.75;;;;;;;15.09;70.84;99212.31;5019858;27;103252;-61
2022/06/14 03:31:59;;;;;;;5.80;4.30;;;;;;;14.95;71.55;99212.63;5024469;27;102805;-61
2022/06/14 03:34:38;;;;;;;3.83;3.53;;;;;;;14.88;71.63;99208.75;5034772;27;103009;-61
2022/06/14 03:37:06;;;;;;;5.07;4.10;;;;;;;14.77;72.54;99200.81;5049254;27;104163;-61
2022/06/14 03:39:38;;;;;;;3.90;3.43;;;;;;;14.84;72.25;99207.34;5033548;27;103335;-60
2022/06/14 03:42:11;;;;;;;3.92;3.40;;;;;;;14.95;70.99;99204.63;5033744;27;102791;-61
2022/06/14 03:44:40;;;;;;;3.45;3.15;;;;;;;15.03;70.54;99213.69;5031934;27;102599;-60
2022/06/14 03:47:18;;;;;;;5.10;3.97;;;;;;;15.05;70.61;99205.56;5036046;27;103283;-61
2022/06/14 03:49:51;;;;;;;4.75;4.03;;;;;;;14.83;72.19;99210.94;5024887;27;103240;-60
2022/06/14 03:52:41;;;;;;;4.75;4.32;;;;;;;14.81;72.82;99210.25;5027485;27;102802;-61
2022/06/14 03:55:23;;;;;;;4.85;4.35;;;;;;;14.80;73.02;99216.50;5024802;27;102683;-61
2022/06/14 03:58:06;;;;;;;3.53;3.22;;;;;;;14.91;71.73;99205.84;5034775;27;103237;-61
2022/06/14 04:00:44;;;;;;;4.07;3.70;;;;;;;15.00;71.83;99210.41;5034161;27;103208;-61
2022/06/14 04:03:32;;;;;;;4.77;4.20;;;;;;;14.97;71.84;99202.69;5030599;27;102916;-61
2022/06/14 04:06:15;;;;;;;4.15;3.75;;;;;;;15.04;71.74;99211.88;5013914;27;104018;-61
2022/06/14 04:08:52;;;;;;;4.15;3.75;;;;;;;15.09;71.32;99212.31;5037336;27;103395;-61
2022/06/14 04:11:37;;;;;;;4.97;4.45;;;;;;;15.10;71.84;99219.34;5032670;27;103163;-60
2022/06/14 04:14:20;;;;;;;6.90;4.70;;;;;;;14.93;73.52;99211.91;5035484;27;102613;-62
2022/06/14 04:16:59;;;;;;;5.97;4.65;;;;;;;15.06;73.14;99212.56;5047598;27;103932;-62
2022/06/14 04:19:37;;;;;;;3.60;3.30;;;;;;;15.20;71.97;99211.44;5024476;27;103649;-61
2022/06/14 04:22:20;;;;;;;5.68;4.18;;;;;;;15.27;71.80;99213.44;5031460;27;103377;-61
2022/06/14 04:24:53;;;;;;;3.88;3.50;;;;;;;15.37;71.54;99209.06;5028456;27;102666;-61
2022/06/14 04:27:27;;;;;;;4.00;3.60;;;;;;;15.44;70.95;99202.22;5028288;27;102948;-61
2022/06/14 04:30:02;;;;;;;4.00;3.60;;;;;;;15.55;70.67;99209.38;5014880;27;104493;-61
2022/06/14 04:32:41;;;;;;;4.07;3.70;;;;;;;15.59;70.84;99210.78;5027842;27;103494;-61
2022/06/14 04:35:14;;;;;;;3.92;3.47;;;;;;;15.68;70.48;99219.81;5022178;27;102822;-61
2022/06/14 04:37:45;;;;;;;3.50;3.20;;;;;;;15.76;70.02;99222.66;5034419;27;102682;-60
2022/06/14 04:40:19;;;;;;;4.32;3.92;;;;;;;15.85;70.02;99221.88;5033882;27;103266;-61
2022/06/14 04:42:53;;;;;;;4.20;3.80;;;;;;;15.89;70.04;99217.97;5030633;27;103155;-60
2022/06/14 04:45:27;;;;;;;5.93;4.63;;;;;;;15.92;69.80;99223.03;5038051;27;103038;-60
2022/06/14 04:48:02;;;;;;;5.63;5.03;;;;;;;15.86;69.73;99213.75;5034125;27;104116;-60
2022/06/14 04:50:36;;;;;;;8.20;6.10;;;;;;;15.56;70.92;99214.53;5027182;27;103644;-61
2022/06/14 04:53:09;;;;;;;7.00;6.00;;;;;;;15.35;72.17;99212.81;5024641;27;103053;-67
2022/06/14 04:55:43;;;;;;;4.77;4.30;;;;;;;15.70;71.03;99216.03;5030875;27;102701;-68
2022/06/14 04:58:16;;;;;;;8.40;6.05;;;;;;;15.65;72.26;99215.59;5029351;27;103963;-68
2022/06/14 05:00:50;;;;;;;4.40;4.00;;;;;;;16.01;71.20;99208.91;5029296;27;103267;-68
2022/06/14 05:03:22;;;;;;;5.60;4.40;;;;;;;16.20;70.18;99201.00;5050705;27;103216;-67
2022/06/14 05:05:54;;;;;;;7.18;5.78;;;;;;;15.83;72.70;99210.53;5021781;27;102701;-67
2022/06/14 05:08:30;;;;;;;6.90;5.13;;;;;;;16.04;72.27;99206.00;5025347;27;104003;-67
2022/06/14 05:11:06;;;;;;;4.50;4.10;;;;;;;16.33;71.27;99206.97;5028188;27;103080;-67
2022/06/14 05:13:43;;;;;;;5.18;4.20;;;;;;;16.58;70.71;99209.19;5035135;27;103225;-68
2022/06/14 05:16:17;;;;;;;4.90;4.43;;;;;;;16.75;70.36;99207.69;5036104;27;102680;-68
2022/06/14 05:18:53;;;;;;;5.55;4.53;;;;;;;16.83;69.85;99207.00;5034804;27;102937;-68
2022/06/14 05:21:28;;;;;;;4.60;3.78;;;;;;;16.99;68.76;99204.63;5029305;27;104199;-67
2022/06/14 05:23:57;;;;;;;6.60;5.32;;;;;;;16.95;68.85;99204.06;5030246;27;103182;-67
2022/06/14 05:26:41;;;;;;;8.23;5.97;;;;;;;16.65;68.07;99196.97;5023610;27;102541;-68
2022/06/14 05:29:17;;;;;;;5.20;4.70;;;;;;;16.91;66.98;99204.47;5033360;27;102838;-67
2022/06/14 05:31:50;;;;;;;4.80;4.17;;;;;;;17.16;67.08;99201.25;5034599;27;103536;-68
2022/06/14 05:34:28;;;;;;;4.78;4.25;;;;;;;17.31;66.49;99199.88;5033436;27;103170;-67
2022/06/14 05:37:00;;;;;;;5.63;5.03;;;;;;;17.40;66.92;99193.69;5033274;27;102892;-68
2022/06/14 05:39:34;;;;;;;5.73;5.23;;;;;;;17.47;67.35;99194.78;5013851;27;102622;-67
2022/06/14 05:42:09;;;;;;;6.90;5.30;;;;;;;17.57;67.61;99200.16;5033508;27;104045;-68
2022/06/14 05:44:43;;;;;;;4.90;4.40;;;;;;;17.74;66.88;99197.56;5024045;27;103260;-68
2022/06/14 05:47:17;;;;;;;5.40;4.88;;;;;;;17.77;66.98;99197.28;5034883;27;102701;-67
2022/06/14 05:49:52;;;;;;;5.80;5.28;;;;;;;17.77;67.47;99199.13;5020399;27;102969;-68
2022/06/14 05:52:27;;;;;;;8.30;6.40;;;;;;;17.62;68.05;99206.75;5021578;27;103686;-68
2022/06/14 05:55:02;;;;;;;5.93;5.18;;;;;;;17.91;67.42;99199.50;5024060;27;103199;-68
2022/06/14 05:57:36;;;;;;;5.30;4.67;;;;;;;18.09;64.58;99204.09;5033826;27;102856;-61
2022/06/14 06:00:10;;;;;;;8.43;6.00;;;;;;;17.93;63.75;99204.72;5023943;27;103883;-61
2022/06/14 06:02:45;;;;;;;5.03;4.20;;;;;;;17.96;63.42;99207.94;5030466;27;103241;-61
2022/06/14 06:05:20;;;;;;;7.47;6.22;;;;;;;18.00;64.97;99213.00;5035413;27;103383;-61
2022/06/14 06:07:53;;;;;;;8.68;6.15;;;;;;;17.74;65.80;99207.44;5024196;27;103058;-60
2022/06/14 06:10:26;;;;;;;8.18;5.28;;;;;;;18.09;65.63;99206.78;5030174;27;102651;-61
2022/06/14 06:13:00;;;;;;;8.07;5.82;;;;;;;17.91;66.54;99210.19;5024120;27;103580;-60
2022/06/14 06:15:39;;;;;;;8.18;6.20;;;;;;;18.02;66.88;99203.84;5030038;27;103294;-61
2022/06/14 06:18:13;;;;;;;7.95;6.88;;;;;;;17.86;67.11;99199.09;5024870;27;102624;-61
2022/06/14 06:20:49;;;;;;;9.82;6.72;;;;;;;17.43;68.28;99198.75;5021400;27;104158;-60
2022/06/14 06:23:25;;;;;;;9.85;6.95;;;;;;;17.00;69.65;99200.97;5030727;27;103315;-68
2022/06/14 06:25:54;;;;;;;9.00;6.18;;;;;;;16.69;69.48;99203.75;5033346;27;103166;-69
2022/06/14 06:28:26;;;;;;;8.27;6.30;;;;;;;17.61;67.71;99197.06;5031049;27;102925;-68
2022/06/14 06:31:00;;;;;;;5.97;5.30;;;;;;;18.15;65.72;99200.84;5024487;27;102769;-68
2022/06/14 06:33:33;;;;;;;4.90;4.40;;;;;;;18.65;64.45;99199.50;5024106;27;103329;-60
2022/06/14 06:36:20;;;;;;;7.30;5.00;;;;;;;18.70;62.72;99197.22;5039132;27;103199;-68
2022/06/14 06:39:05;;;;;;;10.93;5.93;;;;;;;17.27;65.07;99201.13;5026923;27;102702;-68
2022/06/14 06:41:54;;;;;;;9.35;6.47;;;;;;;17.69;64.62;99199.84;5035641;27;102594;-69
2022/06/14 06:44:31;;;;;;;7.00;5.73;;;;;;;18.42;62.55;99195.50;5039306;27;103179;-69
2022/06/14 06:47:06;;;;;;;7.90;5.78;;;;;;;18.33;63.30;99199.09;5025474;27;103280;-69
2022/06/14 06:49:46;;;;;;;6.33;5.23;;;;;;;18.57;63.89;99198.56;5032877;27;102930;-68
2022/06/14 06:52:19;;;;;;;8.00;6.00;;;;;;;18.99;63.05;99197.88;5025551;27;103638;-69
2022/06/14 06:54:56;;;;;;;6.85;5.22;;;;;;;19.36;60.42;99202.25;5021648;27;103226;-64
2022/06/14 06:57:30;;;;;;;4.90;4.40;;;;;;;19.74;59.90;99193.88;5014229;27;104314;-64
2022/06/14 07:00:01;;;;;;;7.90;5.72;;;;;;;19.54;59.25;99197.72;5009914;27;103224;-64
2022/06/14 07:02:37;;;;;;;6.30;5.10;;;;;;;20.00;58.65;99184.00;5028561;27;103754;-64
2022/06/14 07:05:14;;;;;;;6.30;5.20;;;;;;;19.90;58.54;99188.59;5019840;27;103227;-63
2022/06/14 07:07:50;;;;;;;8.10;5.45;;;;;;;20.20;56.17;99190.81;5025187;27;104004;-64
2022/06/14 07:10:25;;;;;;;5.45;4.40;;;;;;;20.75;55.11;99185.88;5028196;27;102584;-67
2022/06/14 07:13:02;;;;;;;8.10;5.13;;;;;;;20.83;55.46;99181.53;5038085;27;103850;-69
2022/06/14 07:15:41;;;;;;;5.90;4.97;;;;;;;20.03;57.19;99188.19;5030632;27;103394;-70
2022/06/14 07:18:16;;;;;;;6.57;5.20;;;;;;;20.37;58.07;99182.88;5041107;27;103197;-69
2022/06/14 07:20:53;;;;;;;7.17;5.33;;;;;;;20.73;56.76;99176.28;5040741;27;103215;-70
2022/06/14 07:23:32;;;;;;;7.88;5.78;;;;;;;19.95;58.66;99186.31;5028315;27;102818;-62
2022/06/14 07:26:12;;;;;;;9.23;6.05;;;;;;;20.33;56.72;99178.81;5027784;27;103296;-61
2022/06/14 07:28:49;;;;;;;8.80;5.32;;;;;;;20.90;55.44;99183.38;5030529;27;103698;-61
2022/06/14 07:31:23;;;;;;;8.52;5.57;;;;;;;21.01;55.20;99180.38;5028350;27;102597;-63
2022/06/14 07:33:52;;;;;;;7.78;5.32;;;;;;;21.41;54.60;99185.00;5016577;27;104212;-62
2022/06/14 07:36:30;;;;;;;7.20;5.38;;;;;;;21.67;52.84;99182.97;5040423;27;103653;-62
2022/06/14 07:39:06;;;;;;;6.30;4.60;;;;;;;22.09;52.38;99180.06;5037891;27;103269;-62
2022/06/14 07:41:43;;;;;;;7.93;5.00;;;;;;;21.96;52.01;99179.75;5023696;27;103040;-62
2022/06/14 07:44:20;;;;;;;7.65;5.43;;;;;;;21.88;51.32;99179.78;5029200;27;102856;-62
2022/06/14 07:46:59;;;;;;;8.55;5.50;;;;;;;21.79;52.26;99178.06;5029426;27;103250;-62
2022/06/14 07:49:37;;;;;;;5.60;4.40;;;;;;;22.42;51.91;99178.97;5037112;27;103315;-62
2022/06/14 07:52:13;;;;;;;4.13;3.50;;;;;;;23.35;47.96;99182.50;5032494;27;102605;-62
2022/06/14 07:54:50;;;;;;;8.10;4.85;;;;;;;21.59;50.26;99187.50;5041611;27;102979;-62
2022/06/14 07:57:26;;;;;;;6.93;4.85;;;;;;;21.63;50.26;99183.47;5018704;27;103381;-62
2022/06/14 07:59:57;;;;;;;8.73;5.07;;;;;;;21.85;48.66;99180.94;5037840;27;103187;-62
2022/06/14 08:02:32;;;;;;;7.30;4.53;;;;;;;23.06;47.92;99182.34;5036148;27;103031;-62
2022/06/14 08:05:07;;;;;;;7.00;4.20;;;;;;;23.84;46.75;99171.28;5033556;27;102664;-63
2022/06/14 08:07:37;;;;;;;6.87;4.70;;;;;;;23.71;44.68;99173.78;5030547;27;104014;-63
2022/06/14 08:10:10;;;;;;;7.00;4.20;;;;;;;24.73;44.86;99163.00;5031219;27;103217;-62
2022/06/14 08:12:42;;;;;;;6.68;4.32;;;;;;;24.32;46.24;99170.78;5025245;27;103019;-63
2022/06/14 08:15:15;;;;;;;9.60;5.80;;;;;;;23.28;48.08;99169.91;5027048;27;102931;-63
2022/06/14 08:17:49;;;;;;;6.60;4.60;;;;;;;24.20;45.87;99172.28;5018814;27;103276;-63
2022/06/14 08:20:26;;;;;;;7.07;4.63;;;;;;;25.21;45.49;99162.31;5036334;27;103066;-62
2022/06/14 08:22:59;;;;;;;6.65;4.38;;;;;;;25.37;43.83;99156.66;5027221;27;102682;-63
2022/06/14 08:25:30;;;;;;;4.20;3.53;;;;;;;25.99;40.77;99165.94;5036511;27;102759;-62
2022/06/14 08:28:09;;;;;;;7.28;4.35;;;;;;;24.98;42.09;99163.53;5032779;27;104646;-63
2022/06/14 08:30:40;;;;;;;7.22;4.50;;;;;;;25.06;43.63;99166.97;5024482;27;103277;-62
2022/06/14 08:33:13;;;;;;;7.90;4.45;;;;;;;24.42;43.77;99168.63;5052963;27;103918;-62
2022/06/14 08:35:45;;;;;;;8.13;4.63;;;;;;;24.50;43.72;99171.25;5026333;27;102864;-63
2022/06/14 08:38:20;;;;;;;6.22;4.13;;;;;;;25.99;41.63;99166.78;5022426;27;103250;-63
2022/06/14 08:41:02;;;;;;;7.35;4.32;;;;;;;26.64;40.64;99160.09;5021708;27;103393;-63
2022/06/14 08:43:40;;;;;;;5.75;4.10;;;;;;;27.38;40.08;99163.63;5038776;27;102926;-63
2022/06/14 08:46:19;;;;;;;6.63;4.47;;;;;;;26.09;41.10;99152.88;5026099;27;104253;-63
2022/06/14 08:49:09;;;;;;;6.87;3.83;;;;;;;26.43;40.43;99159.16;5034188;27;103834;-63
2022/06/14 08:51:55;;;;;;;4.88;3.40;;;;;;;27.00;40.69;99147.09;5046158;27;102959;-63
2022/06/14 08:54:56;;;;;;;5.20;3.42;;;;;;;27.86;41.52;99146.13;5034951;27;102902;-63
2022/06/14 08:57:38;;;;;;;5.57;3.88;;;;;;;28.13;39.28;99141.53;5053742;27;102941;-63
2022/06/14 09:00:17;;;;;;;6.75;4.30;;;;;;;27.96;38.77;99140.25;5027429;27;103247;-63
2022/06/14 09:03:41;;;;;;;7.93;3.75;;;;;;;28.09;38.46;99143.84;5027200;27;105212;-63
2022/06/14 09:06:48;;;;;;;8.48;3.42;;;;;;;28.44;37.48;99143.50;4998345;27;102939;-63
2022/06/14 09:09:51;;;;;;;6.65;3.72;;;;;;;28.45;37.34;99134.31;5029902;27;104347;-63
2022/06/14 09:13:00;;;;;;;7.53;3.90;;;;;;;28.62;36.54;99130.09;5033676;27;103494;-63
2022/06/14 09:16:00;;;;;;;7.23;3.90;;;;;;;27.66;37.70;99131.75;5045024;27;103404;-64
2022/06/14 09:18:40;;;;;;;5.35;3.90;;;;;;;26.82;37.69;99117.84;5026365;27;102926;-63
2022/06/14 09:21:16;;;;;;;6.45;4.15;;;;;;;28.36;38.23;99111.16;5028734;27;103080;-64
2022/06/14 09:24:13;;;;;;;5.10;3.70;;;;;;;29.45;36.80;99109.09;5027097;27;103312;-61
2022/06/14 09:27:06;;;;;;;6.05;3.63;;;;;;;29.14;39.15;99097.16;5026877;27;103193;-63
2022/06/14 09:30:04;;;;;;;5.45;3.92;;;;;;;26.36;40.00;99108.69;5032885;27;103117;-61
2022/06/14 09:33:13;;;;;;;6.10;3.85;;;;;;;26.34;39.62;99103.47;5029186;27;102654;-61
2022/06/14 09:35:59;;;;;;;5.60;3.77;;;;;;;26.87;38.53;99101.81;5014991;27;102967;-61
2022/06/14 09:38:55;;;;;;;5.28;3.75;;;;;;;27.03;39.20;99106.84;5026862;27;104056;-61
2022/06/14 09:41:42;;;;;;;8.77;4.23;;;;;;;27.63;39.47;99096.88;5031467;27;102976;-61
2022/06/14 09:44:47;;;;;;;8.48;4.20;;;;;;;28.34;37.40;99102.41;5032602;27;103849;-61
2022/06/14 09:54:50;;;;;;;5.13;3.47;;;;;;;28.09;36.14;99092.25;4998684;27;103122;-61
2022/06/14 09:57:43;;;;;;;5.20;3.17;;;;;;;29.68;36.69;99093.00;5014149;27;103068;-61
2022/06/14 10:00:40;;;;;;;4.53;3.45;;;;;;;30.02;34.29;99084.31;5025380;27;104654;-61
2022/06/14 10:03:49;;;;;;;3.90;3.33;;;;;;;28.74;35.27;99084.91;5017952;27;103059;-61
2022/06/14 10:06:53;;;;;;;5.97;3.80;;;;;;;26.04;39.39;99082.25;5020455;27;102926;-61
2022/06/14 10:09:39;;;;;;;6.03;3.80;;;;;;;27.12;36.29;99076.84;5018616;27;103200;-61
2022/06/14 10:12:22;;;;;;;5.65;3.88;;;;;;;27.09;37.36;99071.81;5034098;27;103259;-61
2022/06/14 10:14:58;;;;;;;5.88;4.00;;;;;;;26.68;38.05;99072.75;5020168;27;103239;-61
2022/06/14 10:17:50;;;;;;;5.60;3.83;;;;;;;25.61;39.43;99074.28;5031200;27;102883;-61
2022/06/14 10:20:45;;;;;;;5.23;3.50;;;;;;;27.81;37.50;99071.81;5028942;27;103058;-61
2022/06/14 10:23:27;;;;;;;5.38;3.30;;;;;;;29.37;36.71;99061.25;5027494;27;104243;-61
2022/06/14 10:29:19;;;;;;;5.80;3.80;;;;;;;25.98;38.62;99064.09;5030578;27;102619;-61
2022/06/14 10:32:07;;;;;;;4.33;3.20;;;;;;;28.53;37.70;99055.28;5023971;27;102834;-61
2022/06/14 10:34:45;;;;;;;4.40;3.20;;;;;;;28.07;36.54;99060.91;5020277;27;103534;-61
2022/06/14 10:37:26;;;;;;;5.68;3.35;;;;;;;28.64;35.25;99058.16;5012984;27;102993;-61
2022/06/14 10:40:17;;;;;;;5.03;2.90;;;;;;;30.31;33.81;99056.31;5027578;27;102971;-61
2022/06/14 10:42:59;;;;;;;6.43;3.10;;;;;;;29.91;33.46;99055.09;5032434;27;103171;-61
2022/06/14 10:45:32;;;;;;;4.65;3.30;;;;;;;27.58;35.58;99055.97;5027467;27;104473;-61
2022/06/14 10:48:17;;;;;;;5.72;3.90;;;;;;;26.49;39.59;99054.56;5014332;27;103368;-61
2022/06/14 10:50:56;;;;;;;5.25;3.75;;;;;;;27.34;38.68;99056.59;5026636;27;102938;-61
2022/06/14 10:53:39;;;;;;;6.90;4.00;;;;;;;26.08;39.66;99051.06;5040142;27;102882;-61
2022/06/14 10:56:30;;;;;;;6.28;3.47;;;;;;;26.75;38.56;99043.78;5026579;27;103569;-62
2022/06/14 10:59:31;;;;;;;5.57;3.40;;;;;;;27.33;38.23;99036.78;5026993;27;102984;-62
2022/06/14 11:02:17;;;;;;;5.25;3.50;;;;;;;28.27;38.22;99034.50;5025097;27;102723;-61
2022/06/14 11:04:55;;;;;;;4.20;3.30;;;;;;;29.52;37.49;99039.97;5025620;27;103012;-63
2022/06/14 11:07:50;;;;;;;4.47;3.37;;;;;;;29.39;35.19;99028.38;5025601;27;104079;-62
2022/06/14 11:10:47;;;;;;;5.55;3.50;;;;;;;26.35;38.11;99032.03;5027030;27;103210;-62
2022/06/14 11:13:23;;;;;;;7.25;3.53;;;;;;;28.54;35.71;99019.75;5031486;27;102979;-62
2022/06/14 11:15:59;;;;;;;5.40;3.40;;;;;;;27.59;36.29;99031.34;5022907;27;102661;-62
2022/06/14 11:18:52;;;;;;;4.90;3.50;;;;;;;28.64;36.09;99014.69;5025071;27;103226;-62
2022/06/14 11:21:34;;;;;;;6.00;3.40;;;;;;;28.84;36.71;99020.00;5025143;27;103208;-62
2022/06/14 11:24:13;;;;;;;4.40;3.20;;;;;;;28.79;36.11;99019.81;5027400;27;104230;-62
2022/06/14 11:26:50;;;;;;;4.47;3.20;;;;;;;28.56;35.12;99023.06;5027335;27;102730;-62
2022/06/14 11:29:30;;;;;;;6.22;3.53;;;;;;;27.22;36.54;99020.28;5026101;27;104426;-62
2022/06/14 11:32:03;;;;;;;5.20;3.17;;;;;;;29.15;35.45;99017.25;5018023;27;103192;-62
2022/06/14 11:34:45;;;;;;;4.22;2.95;;;;;;;29.89;33.30;99013.66;5018345;27;102616;-63
2022/06/14 11:37:44;;;;;;;5.20;3.10;;;;;;;28.09;33.76;99008.06;5007378;27;103026;-61
2022/06/14 11:40:18;;;;;;;5.38;2.92;;;;;;;29.91;31.42;99003.34;5021248;27;103201;-63
2022/06/14 11:43:07;;;;;;;3.22;2.40;;;;;;;30.57;31.37;99005.25;5026507;27;103221;-62
2022/06/14 11:45:44;;;;;;;5.65;2.95;;;;;;;29.82;31.79;98996.53;5024509;27;103030;-64
2022/06/14 11:48:30;;;;;;;4.07;3.08;;;;;;;28.45;32.60;99001.19;5024588;27;104350;-62
2022/06/14 11:51:07;;;;;;;4.88;3.15;;;;;;;28.62;34.68;98997.75;5031457;27;103311;-62
2022/06/14 11:54:07;;;;;;;5.40;3.47;;;;;;;27.24;36.38;99007.34;5028607;27;103251;-62
2022/06/14 11:56:46;;;;;;;6.10;3.40;;;;;;;27.91;36.71;99002.44;4990515;27;103085;-62
2022/06/14 11:59:35;;;;;;;5.45;3.13;;;;;;;28.40;35.32;99003.72;5025482;27;102759;-62
2022/06/14 12:02:19;;;;;;;4.55;3.20;;;;;;;27.91;34.91;98999.72;5028643;27;103264;-63
2022/06/14 12:04:57;;;;;;;5.07;3.13;;;;;;;30.10;32.69;98985.94;5022107;27;103463;-62
2022/06/14 12:07:32;;;;;;;4.93;3.07;;;;;;;27.88;33.38;98989.28;5025351;27;102897;-63
2022/06/14 12:10:23;;;;;;;3.70;2.90;;;;;;;27.41;34.60;98978.78;5021399;27;102742;-63
2022/06/14 12:13:07;;;;;;;4.95;2.92;;;;;;;27.98;33.75;98975.28;5041193;27;103318;-62
2022/06/14 12:15:48;;;;;;;3.90;3.00;;;;;;;26.10;35.17;98979.41;5022334;27;103200;-63
2022/06/14 12:18:19;;;;;;;5.32;3.05;;;;;;;27.75;34.74;98969.50;5034745;27;102961;-62
2022/06/14 12:20:57;;;;;;;4.13;2.95;;;;;;;28.28;32.97;98972.84;5025973;27;103206;-62
2022/06/14 12:23:34;;;;;;;4.67;2.80;;;;;;;26.93;34.59;98976.28;5024072;27;104755;-62
2022/06/14 12:29:03;;;;;;;5.28;3.08;;;;;;;28.63;34.78;98968.72;5024519;27;102625;-68
2022/06/14 12:31:42;;;;;;;4.28;2.60;;;;;;;28.59;32.70;98962.00;5026899;27;102811;-62
2022/06/14 12:34:23;;;;;;;4.43;3.27;;;;;;;27.16;36.55;98966.91;5025232;27;103923;-63